sensor_id;sensor_type;location;lat;lon;timestamp;pressure;altitude;pressure_sealevel;temperature;humidity
55517;BME280;41724;51.176;-0.708;2023-03-13T00:01:46;99299.76;;;8.58;100.00
55517;BME280;41724;51.176;-0.708;2023-03-13T00:04:14;99284.76;;;8.85;100.00
55517;BME280;41724;51.176;-0.708;2023-03-13T00:06:41;99279.17;;;8.67;100.00
55517;BME280;41724;51.176;-0.708;2023-03-13T00:09:10;99256.06;;;8.62;100.00
55517;BME280;41724;51.176;-0.708;2023-03-13T00:11:38;99254.49;;;9.50;100.00
55517;BME280;41724;51.176;-0.708;2023-03-13T00:14:06;99264.21;;;9.26;100.00
55517;BME280;41724;51.176;-0.708;2023-03-13T00:16:34;99258.19;;;9.21;100.00
55517;BME280;41724;51.176;-0.708;2023-03-13T00:19:03;99265.26;;;9.61;100.00
55517;BME280;41724;51.176;-0.708;2023-03-13T00:21:30;99273.34;;;8.68;100.00
55517;BME280;41724;51.176;-0.708;2023-03-13T00:23:58;99251.65;;;9.73;100.00
55517;BME280;41724;51.176;-0.708;2023-03-13T00:26:27;99248.01;;;9.19;100.00
55517;BME280;41724;51.176;-0.708;2023-03-13T00:28:54;99249.27;;;8.58;100.00
55517;BME280;41724;51.176;-0.708;2023-03-13T00:31:23;99257.04;;;8.35;100.00
55517;BME280;41724;51.176;-0.708;2023-03-13T00:33:52;99225.92;;;9.15;100.00
55517;BME280;41724;51.176;-0.708;2023-03-13T00:36:23;99221.55;;;9.25;100.00
55517;BME280;41724;51.176;-0.708;2023-03-13T00:38:50;99247.79;;;9.16;100.00
55517;BME280;41724;51.176;-0.708;2023-03-13T00:41:20;99224.97;;;9.14;100.00
55517;BME280;41724;51.176;-0.708;2023-03-13T00:43:49;99223.08;;;9.06;100.00
55517;BME280;41724;51.176;-0.708;2023-03-13T00:46:18;99215.97;;;9.56;100.00
55517;BME280;41724;51.176;-0.708;2023-03-13T00:48:45;99215.26;;;9.28;100.00
55517;BME280;41724;51.176;-0.708;2023-03-13T00:51:14;99211.89;;;9.57;100.00
55517;BME280;41724;51.176;-0.708;2023-03-13T00:53:43;99213.67;;;9.06;100.00
55517;BME280;41724;51.176;-0.708;2023-03-13T00:56:11;99209.22;;;8.83;100.00
55517;BME280;41724;51.176;-0.708;2023-03-13T00:58:40;99201.78;;;8.86;100.00
55517;BME280;41724;51.176;-0.708;2023-03-13T01:01:09;99187.68;;;8.75;100.00
55517;BME280;41724;51.176;-0.708;2023-03-13T01:03:38;99201.30;;;8.27;100.00
55517;BME280;41724;51.176;-0.708;2023-03-13T01:06:07;99191.25;;;8.60;100.00
55517;BME280;41724;51.176;-0.708;2023-03-13T01:08:35;99201.58;;;8.60;100.00
55517;BME280;41724;51.176;-0.708;2023-03-13T01:11:05;99201.62;;;8.82;100.00
55517;BME280;41724;51.176;-0.708;2023-03-13T01:13:34;99231.38;;;8.89;100.00
55517;BME280;41724;51.176;-0.708;2023-03-13T01:16:02;99204.29;;;8.77;100.00
55517;BME280;41724;51.176;-0.708;2023-03-13T01:18:30;99199.93;;;8.42;100.00
55517;BME280;41724;51.176;-0.708;2023-03-13T01:20:57;99177.41;;;8.64;100.00
55517;BME280;41724;51.176;-0.708;2023-03-13T01:23:26;99151.23;;;8.63;100.00
55517;BME280;41724;51.176;-0.708;2023-03-13T01:25:53;99170.16;;;8.95;100.00
55517;BME280;41724;51.176;-0.708;2023-03-13T01:28:22;99153.53;;;8.83;100.00
55517;BME280;41724;51.176;-0.708;2023-03-13T01:30:49;99145.35;;;8.67;100.00
55517;BME280;41724;51.176;-0.708;2023-03-13T01:33:16;99142.06;;;8.26;100.00
55517;BME280;41724;51.176;-0.708;2023-03-13T01:35:43;99138.74;;;8.37;100.00
55517;BME280;41724;51.176;-0.708;2023-03-13T01:38:10;99141.34;;;8.74;100.00
55517;BME280;41724;51.176;-0.708;2023-03-13T01:40:39;99131.27;;;9.09;100.00
55517;BME280;41724;51.176;-0.708;2023-03-13T01:43:18;99134.76;;;8.80;100.00
55517;BME280;41724;51.176;-0.708;2023-03-13T01:45:59;99107.50;;;8.66;100.00
55517;BME280;41724;51.176;-0.708;2023-03-13T01:48:34;99116.74;;;9.68;100.00
55517;BME280;41724;51.176;-0.708;2023-03-13T01:51:08;99122.55;;;8.84;100.00
55517;BME280;41724;51.176;-0.708;2023-03-13T01:53:40;99128.32;;;8.50;100.00
55517;BME280;41724;51.176;-0.708;2023-03-13T01:56:12;99134.78;;;8.42;100.00
55517;BME280;41724;51.176;-0.708;2023-03-13T01:58:40;99116.64;;;8.53;100.00
55517;BME280;41724;51.176;-0.708;2023-03-13T02:01:08;99123.38;;;8.91;100.00
55517;BME280;41724;51.176;-0.708;2023-03-13T02:03:36;99110.05;;;9.03;100.00
55517;BME280;41724;51.176;-0.708;2023-03-13T02:06:05;99105.19;;;8.67;100.00
55517;BME280;41724;51.176;-0.708;2023-03-13T02:08:36;99103.38;;;8.53;100.00
55517;BME280;41724;51.176;-0.708;2023-03-13T02:11:12;99099.70;;;9.11;100.00
55517;BME280;41724;51.176;-0.708;2023-03-13T02:13:42;99098.67;;;9.09;100.00
55517;BME280;41724;51.176;-0.708;2023-03-13T02:16:09;99093.71;;;8.61;100.00
55517;BME280;41724;51.176;-0.708;2023-03-13T02:18:37;99085.54;;;8.72;100.00
55517;BME280;41724;51.176;-0.708;2023-03-13T02:21:10;99088.72;;;9.08;100.00
55517;BME280;41724;51.176;-0.708;2023-03-13T02:23:44;99074.45;;;9.86;100.00
55517;BME280;41724;51.176;-0.708;2023-03-13T02:26:15;99066.94;;;9.50;100.00
55517;BME280;41724;51.176;-0.708;2023-03-13T02:28:42;99056.13;;;9.13;100.00
55517;BME280;41724;51.176;-0.708;2023-03-13T02:31:10;99053.40;;;9.42;100.00
55517;BME280;41724;51.176;-0.708;2023-03-13T02:33:39;99050.04;;;9.27;100.00
55517;BME280;41724;51.176;-0.708;2023-03-13T02:36:07;99041.89;;;8.77;100.00
55517;BME280;41724;51.176;-0.708;2023-03-13T02:38:37;99034.78;;;9.21;100.00
55517;BME280;41724;51.176;-0.708;2023-03-13T02:41:05;99028.29;;;8.74;100.00
55517;BME280;41724;51.176;-0.708;2023-03-13T02:43:35;99040.62;;;8.74;100.00
55517;BME280;41724;51.176;-0.708;2023-03-13T02:46:06;99032.89;;;9.09;100.00
55517;BME280;41724;51.176;-0.708;2023-03-13T02:48:36;99038.48;;;8.60;100.00
55517;BME280;41724;51.176;-0.708;2023-03-13T02:51:10;99037.30;;;8.76;100.00
55517;BME280;41724;51.176;-0.708;2023-03-13T02:53:40;99014.74;;;8.68;100.00
55517;BME280;41724;51.176;-0.708;2023-03-13T02:56:07;99014.66;;;8.67;100.00
55517;BME280;41724;51.176;-0.708;2023-03-13T02:58:39;99011.14;;;8.64;100.00
55517;BME280;41724;51.176;-0.708;2023-03-13T03:01:06;99034.20;;;8.86;100.00
55517;BME280;41724;51.176;-0.708;2023-03-13T03:03:33;99013.76;;;8.81;100.00
55517;BME280;41724;51.176;-0.708;2023-03-13T03:06:00;99019.14;;;8.66;100.00
55517;BME280;41724;51.176;-0.708;2023-03-13T03:08:29;99061.33;;;8.58;100.00
55517;BME280;41724;51.176;-0.708;2023-03-13T03:10:56;99011.61;;;8.61;100.00
55517;BME280;41724;51.176;-0.708;2023-03-13T03:13:23;99020.04;;;8.88;100.00
55517;BME280;41724;51.176;-0.708;2023-03-13T03:15:50;99010.18;;;8.84;100.00
55517;BME280;41724;51.176;-0.708;2023-03-13T03:18:17;99015.22;;;8.55;100.00
55517;BME280;41724;51.176;-0.708;2023-03-13T03:20:44;99031.84;;;9.04;100.00
55517;BME280;41724;51.176;-0.708;2023-03-13T03:23:11;99015.62;;;8.59;100.00
55517;BME280;41724;51.176;-0.708;2023-03-13T03:25:38;99003.75;;;8.37;100.00
55517;BME280;41724;51.176;-0.708;2023-03-13T03:28:06;98988.53;;;8.40;100.00
55517;BME280;41724;51.176;-0.708;2023-03-13T03:30:33;98998.04;;;8.77;100.00
55517;BME280;41724;51.176;-0.708;2023-03-13T03:33:02;99015.21;;;8.58;100.00
55517;BME280;41724;51.176;-0.708;2023-03-13T03:35:29;98992.80;;;8.61;100.00
55517;BME280;41724;51.176;-0.708;2023-03-13T03:37:56;98988.42;;;8.66;100.00
55517;BME280;41724;51.176;-0.708;2023-03-13T03:40:23;99003.67;;;8.55;100.00
55517;BME280;41724;51.176;-0.708;2023-03-13T03:42:50;99019.40;;;8.57;100.00
55517;BME280;41724;51.176;-0.708;2023-03-13T03:45:17;99011.88;;;8.40;100.00
55517;BME280;41724;51.176;-0.708;2023-03-13T03:47:44;99003.01;;;8.28;100.00
55517;BME280;41724;51.176;-0.708;2023-03-13T03:50:11;98996.51;;;8.27;100.00
55517;BME280;41724;51.176;-0.708;2023-03-13T03:52:38;99003.31;;;8.30;100.00
55517;BME280;41724;51.176;-0.708;2023-03-13T03:55:06;98997.18;;;8.80;100.00
55517;BME280;41724;51.176;-0.708;2023-03-13T03:57:33;98998.81;;;8.55;100.00
55517;BME280;41724;51.176;-0.708;2023-03-13T04:00:01;98985.18;;;9.01;100.00
55517;BME280;41724;51.176;-0.708;2023-03-13T04:02:28;98986.47;;;8.66;100.00
55517;BME280;41724;51.176;-0.708;2023-03-13T04:04:55;98994.96;;;8.34;100.00
55517;BME280;41724;51.176;-0.708;2023-03-13T04:07:22;98996.97;;;8.59;100.00
55517;BME280;41724;51.176;-0.708;2023-03-13T04:09:49;98995.89;;;8.10;100.00
55517;BME280;41724;51.176;-0.708;2023-03-13T04:12:16;99001.51;;;8.20;100.00
55517;BME280;41724;51.176;-0.708;2023-03-13T04:14:43;99009.29;;;8.73;100.00
55517;BME280;41724;51.176;-0.708;2023-03-13T04:17:10;98989.08;;;8.38;100.00
55517;BME280;41724;51.176;-0.708;2023-03-13T04:19:37;98973.91;;;9.10;100.00
55517;BME280;41724;51.176;-0.708;2023-03-13T04:22:04;99014.95;;;8.92;100.00
55517;BME280;41724;51.176;-0.708;2023-03-13T04:24:31;98990.24;;;8.87;100.00
55517;BME280;41724;51.176;-0.708;2023-03-13T04:26:58;98981.69;;;8.93;100.00
55517;BME280;41724;51.176;-0.708;2023-03-13T04:29:25;98974.53;;;8.83;100.00
55517;BME280;41724;51.176;-0.708;2023-03-13T04:31:52;98975.85;;;8.39;100.00
55517;BME280;41724;51.176;-0.708;2023-03-13T04:34:19;98948.26;;;9.05;100.00
55517;BME280;41724;51.176;-0.708;2023-03-13T04:36:46;98957.90;;;8.59;100.00
55517;BME280;41724;51.176;-0.708;2023-03-13T04:39:13;98954.20;;;8.81;100.00
55517;BME280;41724;51.176;-0.708;2023-03-13T04:41:40;98973.11;;;8.80;100.00
55517;BME280;41724;51.176;-0.708;2023-03-13T04:44:07;98948.27;;;8.44;100.00
55517;BME280;41724;51.176;-0.708;2023-03-13T04:46:34;98974.50;;;8.36;100.00
55517;BME280;41724;51.176;-0.708;2023-03-13T04:49:02;98956.07;;;8.40;100.00
55517;BME280;41724;51.176;-0.708;2023-03-13T04:51:29;98968.67;;;8.56;100.00
55517;BME280;41724;51.176;-0.708;2023-03-13T04:53:55;98986.74;;;8.58;100.00
55517;BME280;41724;51.176;-0.708;2023-03-13T04:56:25;98959.74;;;8.52;100.00
55517;BME280;41724;51.176;-0.708;2023-03-13T04:58:52;98942.89;;;8.66;100.00
55517;BME280;41724;51.176;-0.708;2023-03-13T05:01:20;98954.18;;;8.67;100.00
55517;BME280;41724;51.176;-0.708;2023-03-13T05:03:48;98941.68;;;8.38;100.00
55517;BME280;41724;51.176;-0.708;2023-03-13T05:06:16;98938.75;;;8.15;100.00
55517;BME280;41724;51.176;-0.708;2023-03-13T05:08:43;98951.77;;;8.18;100.00
55517;BME280;41724;51.176;-0.708;2023-03-13T05:11:10;98935.36;;;8.27;100.00
55517;BME280;41724;51.176;-0.708;2023-03-13T05:13:37;98942.42;;;8.73;100.00
55517;BME280;41724;51.176;-0.708;2023-03-13T05:16:05;98929.96;;;8.53;100.00
55517;BME280;41724;51.176;-0.708;2023-03-13T05:18:31;98925.57;;;9.09;100.00
55517;BME280;41724;51.176;-0.708;2023-03-13T05:20:59;98928.54;;;8.62;100.00
55517;BME280;41724;51.176;-0.708;2023-03-13T05:23:26;98922.01;;;8.46;100.00
55517;BME280;41724;51.176;-0.708;2023-03-13T05:25:52;98916.36;;;8.73;100.00
55517;BME280;41724;51.176;-0.708;2023-03-13T05:28:20;98909.77;;;8.60;100.00
55517;BME280;41724;51.176;-0.708;2023-03-13T05:30:47;98931.62;;;8.43;100.00
55517;BME280;41724;51.176;-0.708;2023-03-13T05:33:14;98912.09;;;8.52;100.00
55517;BME280;41724;51.176;-0.708;2023-03-13T05:35:41;98913.90;;;8.28;100.00
55517;BME280;41724;51.176;-0.708;2023-03-13T05:38:09;98908.52;;;8.34;100.00
55517;BME280;41724;51.176;-0.708;2023-03-13T05:40:36;98910.62;;;8.48;100.00
55517;BME280;41724;51.176;-0.708;2023-03-13T05:43:04;98930.71;;;8.80;100.00
55517;BME280;41724;51.176;-0.708;2023-03-13T05:45:30;98937.05;;;9.01;100.00
55517;BME280;41724;51.176;-0.708;2023-03-13T05:47:58;98941.44;;;9.19;100.00
55517;BME280;41724;51.176;-0.708;2023-03-13T05:50:26;98939.45;;;8.86;100.00
55517;BME280;41724;51.176;-0.708;2023-03-13T05:52:53;98922.20;;;8.33;100.00
55517;BME280;41724;51.176;-0.708;2023-03-13T05:55:20;98910.51;;;8.35;100.00
55517;BME280;41724;51.176;-0.708;2023-03-13T05:57:48;98906.83;;;8.50;100.00
55517;BME280;41724;51.176;-0.708;2023-03-13T06:00:16;98931.66;;;8.43;100.00
55517;BME280;41724;51.176;-0.708;2023-03-13T06:02:44;98912.56;;;8.40;100.00
55517;BME280;41724;51.176;-0.708;2023-03-13T06:05:11;98925.10;;;8.36;100.00
55517;BME280;41724;51.176;-0.708;2023-03-13T06:07:38;98900.18;;;8.69;100.00
55517;BME280;41724;51.176;-0.708;2023-03-13T06:10:05;98929.29;;;8.91;100.00
55517;BME280;41724;51.176;-0.708;2023-03-13T06:12:33;98920.39;;;8.30;100.00
55517;BME280;41724;51.176;-0.708;2023-03-13T06:15:00;98920.04;;;8.65;100.00
55517;BME280;41724;51.176;-0.708;2023-03-13T06:17:27;98906.62;;;8.76;100.00
55517;BME280;41724;51.176;-0.708;2023-03-13T06:19:54;98909.62;;;8.55;100.00
55517;BME280;41724;51.176;-0.708;2023-03-13T06:22:21;98909.71;;;8.21;100.00
55517;BME280;41724;51.176;-0.708;2023-03-13T06:24:48;98908.18;;;8.50;100.00
55517;BME280;41724;51.176;-0.708;2023-03-13T06:27:16;98916.59;;;8.02;100.00
55517;BME280;41724;51.176;-0.708;2023-03-13T06:29:43;98910.89;;;8.14;100.00
55517;BME280;41724;51.176;-0.708;2023-03-13T06:32:10;98915.90;;;8.40;100.00
55517;BME280;41724;51.176;-0.708;2023-03-13T06:34:38;98907.38;;;8.11;100.00
55517;BME280;41724;51.176;-0.708;2023-03-13T06:37:05;98916.75;;;8.49;100.00
55517;BME280;41724;51.176;-0.708;2023-03-13T06:39:32;98902.72;;;8.14;100.00
55517;BME280;41724;51.176;-0.708;2023-03-13T06:41:59;98912.17;;;8.33;100.00
55517;BME280;41724;51.176;-0.708;2023-03-13T06:44:26;98896.61;;;8.16;100.00
55517;BME280;41724;51.176;-0.708;2023-03-13T06:46:53;98919.81;;;8.33;100.00
55517;BME280;41724;51.176;-0.708;2023-03-13T06:49:20;98890.14;;;7.99;100.00
55517;BME280;41724;51.176;-0.708;2023-03-13T06:51:48;98890.92;;;7.94;100.00
55517;BME280;41724;51.176;-0.708;2023-03-13T06:54:15;98879.81;;;8.43;100.00
55517;BME280;41724;51.176;-0.708;2023-03-13T06:56:42;98862.15;;;8.04;100.00
55517;BME280;41724;51.176;-0.708;2023-03-13T09:16:35;98817.61;;;9.05;96.43
55517;BME280;41724;51.176;-0.708;2023-03-13T09:19:03;98819.61;;;8.67;96.21
55517;BME280;41724;51.176;-0.708;2023-03-13T09:21:32;98821.30;;;8.67;95.45
55517;BME280;41724;51.176;-0.708;2023-03-13T09:24:00;98822.65;;;9.18;94.34
55517;BME280;41724;51.176;-0.708;2023-03-13T09:26:28;98802.61;;;8.75;95.48
55517;BME280;41724;51.176;-0.708;2023-03-13T09:28:56;98838.99;;;8.77;93.51
55517;BME280;41724;51.176;-0.708;2023-03-13T09:31:25;98828.06;;;9.21;93.54
55517;BME280;41724;51.176;-0.708;2023-03-13T09:33:53;98834.88;;;8.17;95.30
55517;BME280;41724;51.176;-0.708;2023-03-13T09:36:21;98831.58;;;9.13;92.89
55517;BME280;41724;51.176;-0.708;2023-03-13T09:38:49;98822.25;;;8.93;92.26
55517;BME280;41724;51.176;-0.708;2023-03-13T09:41:24;98822.56;;;8.94;93.26
55517;BME280;41724;51.176;-0.708;2023-03-13T09:43:59;98827.54;;;8.62;93.20
55517;BME280;41724;51.176;-0.708;2023-03-13T09:46:37;98837.46;;;8.60;93.51
55517;BME280;41724;51.176;-0.708;2023-03-13T09:49:12;98824.97;;;9.10;92.46
55517;BME280;41724;51.176;-0.708;2023-03-13T09:51:44;98801.85;;;8.98;91.16
55517;BME280;41724;51.176;-0.708;2023-03-13T09:54:23;98815.77;;;9.58;90.57
55517;BME280;41724;51.176;-0.708;2023-03-13T09:56:54;98819.57;;;9.34;90.15
55517;BME280;41724;51.176;-0.708;2023-03-13T09:59:28;98824.49;;;9.12;92.79
55517;BME280;41724;51.176;-0.708;2023-03-13T10:02:00;98816.24;;;9.19;89.71
55517;BME280;41724;51.176;-0.708;2023-03-13T10:04:37;98823.46;;;8.97;94.90
55517;BME280;41724;51.176;-0.708;2023-03-13T10:07:10;98823.52;;;9.02;95.74
55517;BME280;41724;51.176;-0.708;2023-03-13T10:09:38;98820.15;;;9.08;92.41
55517;BME280;41724;51.176;-0.708;2023-03-13T10:12:11;98861.91;;;9.27;92.71
55517;BME280;41724;51.176;-0.708;2023-03-13T10:14:45;98827.93;;;9.12;93.89
55517;BME280;41724;51.176;-0.708;2023-03-13T10:17:28;98827.10;;;9.20;94.39
55517;BME280;41724;51.176;-0.708;2023-03-13T10:19:59;98828.72;;;8.45;93.27
55517;BME280;41724;51.176;-0.708;2023-03-13T10:22:29;98875.23;;;8.36;96.91
55517;BME280;41724;51.176;-0.708;2023-03-13T10:24:59;98838.00;;;8.72;94.63
55517;BME280;41724;51.176;-0.708;2023-03-13T10:27:29;98814.91;;;8.65;95.79
55517;BME280;41724;51.176;-0.708;2023-03-13T10:29:56;98810.18;;;8.97;93.09
55517;BME280;41724;51.176;-0.708;2023-03-13T10:32:23;98803.65;;;8.92;92.78
55517;BME280;41724;51.176;-0.708;2023-03-13T10:34:54;98811.64;;;9.34;89.41
55517;BME280;41724;51.176;-0.708;2023-03-13T10:37:24;98802.96;;;9.14;90.12
55517;BME280;41724;51.176;-0.708;2023-03-13T10:39:52;98784.65;;;9.35;90.77
55517;BME280;41724;51.176;-0.708;2023-03-13T10:42:23;98793.32;;;9.30;91.57
55517;BME280;41724;51.176;-0.708;2023-03-13T10:44:57;98835.60;;;9.30;91.81
55517;BME280;41724;51.176;-0.708;2023-03-13T10:47:26;98778.85;;;8.59;93.98
55517;BME280;41724;51.176;-0.708;2023-03-13T10:49:56;98791.26;;;9.20;91.45
55517;BME280;41724;51.176;-0.708;2023-03-13T10:52:31;98772.19;;;9.11;93.75
55517;BME280;41724;51.176;-0.708;2023-03-13T10:54:59;98763.14;;;9.11;90.59
55517;BME280;41724;51.176;-0.708;2023-03-13T10:57:29;98777.81;;;9.26;90.50
55517;BME280;41724;51.176;-0.708;2023-03-13T10:59:58;98788.61;;;9.41;91.08
55517;BME280;41724;51.176;-0.708;2023-03-13T11:02:28;98796.54;;;9.09;91.42
55517;BME280;41724;51.176;-0.708;2023-03-13T11:04:58;98786.15;;;8.93;93.17
55517;BME280;41724;51.176;-0.708;2023-03-13T11:07:28;98769.97;;;9.24;92.61
55517;BME280;41724;51.176;-0.708;2023-03-13T11:10:01;98760.06;;;9.59;89.97
55517;BME280;41724;51.176;-0.708;2023-03-13T11:12:33;98769.63;;;9.31;93.46
55517;BME280;41724;51.176;-0.708;2023-03-13T11:15:02;98766.03;;;8.96;94.40
55517;BME280;41724;51.176;-0.708;2023-03-13T11:17:40;98779.09;;;9.07;94.11
55517;BME280;41724;51.176;-0.708;2023-03-13T11:20:17;98777.41;;;9.35;96.66
55517;BME280;41724;51.176;-0.708;2023-03-13T11:22:55;98761.22;;;9.11;93.79
55517;BME280;41724;51.176;-0.708;2023-03-13T11:25:31;98785.68;;;8.98;93.21
55517;BME280;41724;51.176;-0.708;2023-03-13T11:28:14;98752.74;;;9.43;92.51
55517;BME280;41724;51.176;-0.708;2023-03-13T11:31:16;98750.41;;;9.40;91.42
55517;BME280;41724;51.176;-0.708;2023-03-13T11:33:49;98739.36;;;9.92;86.80
55517;BME280;41724;51.176;-0.708;2023-03-13T11:36:22;98756.14;;;10.40;82.93
55517;BME280;41724;51.176;-0.708;2023-03-13T11:38:57;98746.44;;;11.02;82.77
55517;BME280;41724;51.176;-0.708;2023-03-13T11:41:40;98730.74;;;11.01;81.44
55517;BME280;41724;51.176;-0.708;2023-03-13T11:44:20;98736.71;;;11.05;81.49
55517;BME280;41724;51.176;-0.708;2023-03-13T11:47:27;98740.65;;;10.76;81.89
55517;BME280;41724;51.176;-0.708;2023-03-13T11:50:11;98725.70;;;10.52;84.67
55517;BME280;41724;51.176;-0.708;2023-03-13T11:52:52;98729.27;;;9.61;88.83
55517;BME280;41724;51.176;-0.708;2023-03-13T11:55:34;98732.58;;;9.95;88.73
55517;BME280;41724;51.176;-0.708;2023-03-13T11:58:33;98742.47;;;9.63;86.83
55517;BME280;41724;51.176;-0.708;2023-03-13T12:01:08;98710.59;;;9.66;87.79
55517;BME280;41724;51.176;-0.708;2023-03-13T12:03:41;98726.83;;;9.67;89.05
55517;BME280;41724;51.176;-0.708;2023-03-13T12:06:17;98746.56;;;10.61;88.68
55517;BME280;41724;51.176;-0.708;2023-03-13T12:08:54;98731.60;;;10.28;89.41
55517;BME280;41724;51.176;-0.708;2023-03-13T12:11:26;98723.55;;;10.15;87.49
55517;BME280;41724;51.176;-0.708;2023-03-13T12:13:57;98700.19;;;10.44;85.37
55517;BME280;41724;51.176;-0.708;2023-03-13T12:16:36;98705.54;;;10.14;85.48
55517;BME280;41724;51.176;-0.708;2023-03-13T12:19:09;98710.99;;;10.75;83.47
55517;BME280;41724;51.176;-0.708;2023-03-13T12:21:42;98721.64;;;11.18;80.83
55517;BME280;41724;51.176;-0.708;2023-03-13T12:24:17;98702.65;;;10.96;80.13
55517;BME280;41724;51.176;-0.708;2023-03-13T12:26:52;98702.79;;;10.63;82.00
55517;BME280;41724;51.176;-0.708;2023-03-13T12:29:27;98714.75;;;11.18;81.26
55517;BME280;41724;51.176;-0.708;2023-03-13T12:32:01;98693.21;;;11.16;82.61
55517;BME280;41724;51.176;-0.708;2023-03-13T12:34:36;98696.20;;;11.15;82.54
55517;BME280;41724;51.176;-0.708;2023-03-13T12:37:11;98690.91;;;11.22;81.94
55517;BME280;41724;51.176;-0.708;2023-03-13T12:39:42;98688.95;;;11.22;80.73
55517;BME280;41724;51.176;-0.708;2023-03-13T12:42:22;98695.52;;;10.32;83.14
55517;BME280;41724;51.176;-0.708;2023-03-13T12:44:54;98705.10;;;10.39;85.03
55517;BME280;41724;51.176;-0.708;2023-03-13T12:47:28;98707.06;;;10.26;83.86
55517;BME280;41724;51.176;-0.708;2023-03-13T12:50:13;98690.59;;;10.84;82.29
55517;BME280;41724;51.176;-0.708;2023-03-13T12:55:31;98681.45;;;10.75;80.81
